Date,TemperatureHighF,TemperatureAvgF,TemperatureLowF,DewpointHighF,DewpointAvgF,DewpointLowF,HumidityHigh,HumidityAvg,HumidityLow,PressureMaxIn,PressureMinIn,WindSpeedMaxMPH,WindSpeedAvgMPH,GustSpeedMaxMPH,PrecipitationSumIn
2013-1-1,25.6,22.0,18.7,17.5,14.4,12.1,78,72,63,30.21,30.09,16,2,17,0.00
2013-1-2,26.0,23.4,18.9,23.4,18.0,12.3,90,80,75,30.20,30.12,13,2,15,0.00
2013-1-3,28.9,24.8,19.2,24.7,20.0,12.5,89,82,75,30.21,30.07,16,3,21,0.00
2013-1-4,32.4,29.6,26.5,25.8,23.8,21.7,83,79,73,30.20,30.06,28,6,29,0.00
2013-1-5,35.8,32.9,27.9,30.3,25.2,21.0,93,73,67,30.24,29.96,15,2,17,0.02
2013-1-6,34.8,24.9,0.0,30.0,20.5,0.0,87,58,69,30.30,29.86,17,3,24,0.04
2013-1-7,36.6,19.2,0.0,29.2,13.7,0.0,83,38,50,30.33,30.11,21,5,23,0.01
2013-1-8,37.2,9.6,0.0,29.4,7.4,0.0,82,19,69,30.21,30.08,13,2,15,0.01
2013-1-9,43.2,22.7,0.0,33.2,16.2,0.0,77,35,55,30.43,29.98,32,8,37,0.01
2013-1-10,44.2,24.3,0.0,32.8,18.1,0.0,91,42,53,30.54,30.06,18,2,21,0.23
2013-1-11,51.4,44.4,35.4,50.3,43.0,32.8,96,95,90,30.06,29.72,18,3,21,0.68
2013-1-12,55.9,47.2,36.2,48.8,41.5,32.1,95,81,61,29.96,29.74,24,4,27,0.04
2013-1-13,36.1,30.5,23.4,32.6,27.8,17.9,94,90,79,30.13,29.83,21,4,22,0.20
2013-1-14,24.7,20.8,16.2,18.1,15.5,10.9,94,80,71,30.46,30.13,20,3,24,0.00
2013-1-15,32.9,24.8,18.6,22.4,18.2,14.3,87,76,61,30.42,30.13,9,0,9,0.00
2013-1-16,35.9,29.1,20.5,30.6,23.0,16.2,86,78,58,30.13,29.76,27,3,29,0.00
2013-1-17,35.9,28.1,21.6,29.9,18.2,9.7,79,66,57,30.33,29.96,24,4,25,0.00
2013-1-18,40.8,29.2,18.7,31.1,19.3,9.9,81,66,59,30.39,29.86,25,3,29,0.00
2013-1-19,45.2,42.4,39.5,37.4,33.4,21.5,78,70,47,29.86,29.55,37,8,53,0.00
2013-1-20,39.0,18.1,15.0,23.1,11.3,8.9,82,75,51,30.20,29.59,50,8,50,0.00
2013-1-21,16.2,11.0,3.2,11.4,6.7,-1.0,85,82,78,30.17,30.03,24,5,25,0.00
2013-1-22,12.6,5.1,-0.6,7.1,0.5,-5.0,83,81,76,30.32,30.17,15,2,16,0.01
2013-1-23,20.2,12.3,3.2,16.1,8.3,-1.0,95,84,80,30.32,30.07,17,1,17,0.00
2013-1-24,20.4,10.6,-2.0,11.4,5.0,-6.4,85,78,62,30.63,30.21,8,0,9,0.00
2013-1-25,23.1,18.7,13.8,18.8,13.0,5.4,88,78,68,30.47,29.96,10,1,13,0.00
2013-1-26,29.0,23.9,19.3,22.0,18.8,15.5,96,81,67,30.39,30.06,12,1,13,0.00
2013-1-27,31.8,31.3,30.6,28.9,28.2,27.6,89,88,87,30.07,30.01,13,5,18,0.00
2013-1-28,44.8,37.1,31.8,43.2,34.5,28.9,96,90,86,30.01,29.80,16,2,19,0.58
2013-1-29,56.2,47.5,34.1,55.0,45.9,31.5,96,94,90,29.94,29.33,17,3,17,1.03
2013-1-30,51.3,40.1,24.8,49.9,38.7,22.2,96,94,90,29.36,29.07,26,4,30,0.40
2013-1-31,24.7,19.2,15.5,22.2,16.3,12.6,90,88,84,29.93,29.35,21,7,24,0.00
2013-2-1,16.6,14.6,11.8,13.5,11.5,8.4,89,87,84,30.24,29.92,16,3,19,0.00
2013-2-2,18.9,14.0,2.9,15.7,10.1,-1.8,89,84,77,30.16,30.00,8,1,9,0.00
2013-2-3,20.5,15.2,7.1,17.4,11.9,3.5,88,87,85,30.03,29.89,18,1,19,0.00
2013-2-4,25.0,17.9,8.3,19.4,13.8,4.0,89,84,76,30.02,29.89,7,0,7,0.00
2013-2-5,29.4,19.7,4.2,28.0,16.5,0.7,96,87,82,30.01,29.77,17,3,20,0.00
2013-2-6,34.6,25.3,10.9,24.4,18.8,7.5,91,77,58,30.25,30.01,12,1,13,0.03
2013-2-7,33.3,30.8,28.3,30.7,26.2,21.4,91,83,74,30.20,29.85,12,3,14,0.00
2013-2-8,32.9,27.7,12.4,28.6,22.7,7.2,92,82,65,30.37,29.85,18,3,19,0.06
2013-2-9,32.9,20.4,5.1,22.6,14.0,1.2,89,77,60,30.43,30.19,11,1,12,0.07
2013-2-10,41.8,30.5,19.2,39.9,26.3,15.3,93,84,74,30.19,29.53,17,4,20,0.28
2013-2-11,44.4,35.8,30.5,42.4,31.9,24.8,93,86,74,29.87,29.47,34,9,35,0.12
2013-2-12,30.5,29.0,27.1,25.6,23.7,21.8,88,81,78,30.04,29.87,21,3,23,0.00
2013-2-13,39.5,31.4,23.6,30.4,25.8,19.7,89,80,66,29.91,29.71,11,1,12,0.10
2013-2-14,41.8,33.3,26.5,35.9,30.1,22.9,92,88,75,29.90,29.60,24,4,28,0.16
2013-2-15,28.9,24.7,21.1,23.7,17.8,14.6,86,75,59,30.14,29.89,15,2,17,0.00
2013-2-16,23.7,18.5,9.9,17.6,13.9,5.6,88,82,66,30.12,30.04,15,1,17,0.00
2013-2-17,26.3,15.0,1.5,12.4,7.0,-2.5,87,71,50,30.24,30.12,8,0,8,0.01
2013-2-18,46.4,35.0,19.6,41.0,25.3,11.3,90,68,54,30.13,29.39,21,6,21,0.15
2013-2-19,43.1,25.5,16.8,40.7,22.6,13.6,91,88,86,29.98,29.34,28,9,30,0.09
2013-2-20,23.2,19.6,15.7,16.9,14.2,11.8,86,79,70,30.30,29.97,23,7,24,0.00
2013-2-21,28.6,23.7,20.8,19.8,16.8,13.9,80,75,66,30.38,30.15,21,2,26,0.01
2013-2-22,33.2,26.9,20.8,31.3,23.7,15.0,93,88,77,30.17,29.83,21,4,26,0.00
2013-2-23,31.7,29.0,25.1,29.9,26.2,22.1,93,89,84,29.90,29.81,20,3,20,0.00
2013-2-24,38.6,30.6,21.9,30.3,25.2,18.0,91,81,65,30.14,29.88,14,2,16,0.15
2013-2-25,41.7,29.4,15.5,30.5,21.3,12.4,96,73,51,30.22,30.07,8,0,9,0.03
2013-2-26,35.8,32.2,28.8,31.7,26.1,22.1,93,78,65,30.10,29.50,29,5,31,0.07
2013-2-27,37.8,35.0,33.4,36.2,33.1,31.6,94,93,91,29.60,29.46,8,1,9,0.47
2013-2-28,38.2,34.3,30.8,32.4,29.8,24.8,92,83,75,30.00,29.60,17,3,18,0.15
2013-3-1,31.1,27.9,21.7,24.8,19.6,14.8,78,71,61,30.15,29.99,14,2,14,0.00
2013-3-2,30.6,23.3,15.3,18.2,15.0,10.6,91,71,58,30.16,30.08,18,1,18,0.00
2013-3-3,33.9,22.9,10.0,19.2,14.1,5.6,96,70,49,30.11,30.01,16,1,17,0.00
2013-3-4,37.3,23.9,8.9,19.0,13.4,4.8,88,66,42,30.17,30.07,8,0,8,0.00
2013-3-5,34.2,27.9,22.0,23.9,19.5,13.7,83,71,62,30.11,29.85,22,6,27,0.00
2013-3-6,40.9,34.4,27.6,29.9,27.6,23.1,87,76,63,30.22,29.94,19,2,19,0.00
2013-3-7,39.4,32.9,21.7,29.2,24.3,16.5,86,71,50,30.41,30.21,18,2,18,0.00
2013-3-8,43.3,30.1,17.0,25.4,20.1,13.2,94,68,45,30.50,30.37,7,0,8,0.00
2013-3-9,44.0,36.8,25.3,34.2,27.3,20.0,82,69,53,30.38,29.92,17,4,19,0.01
2013-3-10,50.0,45.6,41.3,45.5,40.4,33.7,91,82,68,29.92,29.66,14,2,14,0.34
2013-3-11,51.2,44.6,34.9,49.0,41.4,32.5,94,89,74,29.66,29.44,19,3,24,0.26
2013-3-12,35.3,32.3,29.2,33.2,27.8,24.4,92,83,71,29.88,29.62,18,4,25,0.03
2013-3-13,33.0,27.8,23.1,25.4,19.4,14.4,88,72,52,30.24,29.88,25,5,27,0.01
2013-3-14,40.7,31.1,19.6,25.0,20.0,14.2,84,64,45,30.27,30.07,16,2,18,0.00
2013-3-15,39.8,36.3,32.3,34.5,32.0,25.0,90,84,74,30.07,29.82,16,2,17,0.04
2013-3-16,37.2,30.6,26.5,30.6,24.3,19.3,91,78,58,30.07,29.74,18,4,19,0.13
2013-3-17,33.5,28.5,24.0,21.5,16.7,12.5,75,61,48,30.25,30.06,16,4,19,0.01
2013-3-18,34.4,28.6,21.9,31.8,23.7,15.5,91,82,70,30.12,29.56,32,4,32,0.03
2013-3-19,30.7,24.5,20.6,27.6,19.1,14.6,89,80,58,29.95,29.61,26,7,28,0.00
2013-3-20,27.4,22.0,13.4,17.9,14.2,9.3,85,72,58,29.98,29.92,19,4,23,0.01
2013-3-21,31.2,24.0,12.4,24.7,18.7,8.8,89,80,70,29.99,29.90,23,4,24,0.01
2013-3-22,38.7,31.4,26.1,24.8,21.6,18.7,80,67,54,30.04,29.97,15,3,17,0.05
2013-3-23,36.4,30.7,22.4,25.0,22.9,17.6,85,73,61,30.13,30.03,10,1,10,0.00
2013-3-24,39.6,31.2,23.4,27.2,23.4,18.7,87,73,57,30.05,29.70,25,4,28,0.00
2013-3-25,39.8,34.9,31.0,28.9,25.7,22.6,77,69,57,29.97,29.64,20,5,23,0.00
2013-3-26,43.0,35.4,30.7,34.2,29.8,26.1,88,80,62,30.16,29.97,18,3,19,0.05
2013-3-27,45.0,37.4,30.8,31.5,27.8,22.8,90,70,49,30.24,30.16,24,4,24,0.04
2013-3-28,50.6,38.5,28.9,30.5,25.8,19.1,88,62,40,30.29,30.23,17,2,19,0.00
2013-3-29,51.7,36.9,22.5,33.3,23.8,17.6,89,62,35,30.28,30.21,20,1,20,0.00
2013-3-30,58.1,40.5,23.0,35.0,26.0,19.7,90,61,30,30.22,29.85,21,1,21,0.00
2013-3-31,49.0,43.5,37.1,40.9,37.0,30.0,91,78,60,29.85,29.64,25,4,30,0.08
2013-4-1,37.1,30.4,24.8,30.5,18.0,13.3,85,60,48,30.10,29.74,26,5,27,0.01
2013-4-2,38.7,30.6,18.8,22.4,16.8,12.7,84,58,40,30.26,30.10,22,4,25,0.00
2013-4-3,46.5,32.5,20.7,21.4,17.7,13.8,83,57,31,30.45,30.25,15,2,17,0.00
2013-4-4,53.1,40.5,24.8,27.8,22.4,17.4,78,51,30,30.33,29.94,22,4,22,0.00
2013-4-5,50.6,41.2,31.5,28.5,24.1,17.5,73,52,27,30.18,29.94,17,3,22,0.00
2013-4-6,58.4,47.2,36.2,43.4,26.8,16.3,66,46,35,30.17,29.61,27,7,27,0.00
2013-4-7,56.4,45.3,34.1,48.4,36.8,28.6,86,72,57,29.99,29.52,29,6,35,0.11
2013-4-8,52.6,41.9,35.5,50.5,37.8,30.9,93,85,76,29.98,29.62,27,6,29,0.48
2013-4-9,47.4,43.2,39.8,45.8,41.5,37.7,95,94,92,30.04,29.84,28,3,30,1.12
2013-4-10,42.5,40.8,38.2,40.9,38.0,32.3,94,90,80,30.00,29.75,28,7,28,0.34
2013-4-11,38.9,36.8,35.8,35.0,33.9,31.1,92,89,74,29.95,29.61,31,10,36,1.31
2013-4-12,41.6,37.5,34.2,37.5,34.7,32.1,93,90,78,29.74,29.53,21,5,23,0.23
2013-4-13,40.2,37.0,35.1,35.6,31.2,26.4,92,80,59,29.96,29.74,24,5,28,0.10
2013-4-14,49.8,39.0,28.8,41.5,33.3,24.3,90,80,67,30.07,29.80,22,4,26,0.10
2013-4-15,66.8,55.1,45.2,55.2,47.9,36.6,92,77,66,29.90,29.76,20,4,22,0.62
2013-4-16,52.9,47.0,41.2,45.3,37.9,32.9,92,72,50,30.23,29.88,19,3,19,0.26
2013-4-17,52.8,45.7,41.6,43.4,37.0,31.5,92,72,51,30.30,29.91,30,5,31,0.95
2013-4-18,62.4,54.6,44.5,60.5,52.6,42.3,96,93,84,29.95,29.36,21,4,23,1.77
2013-4-19,61.3,39.6,33.4,57.7,34.2,25.7,90,81,69,29.74,29.38,34,11,39,0.24
2013-4-20,38.7,33.3,27.9,27.5,21.5,18.3,79,62,47,30.43,29.74,29,5,29,0.03
2013-4-21,54.2,39.7,23.7,32.0,24.6,18.5,88,58,33,30.57,30.37,15,3,17,0.00
2013-4-22,67.2,52.2,36.5,36.7,31.5,27.5,75,49,25,30.38,30.08,12,3,14,0.00
2013-4-23,64.6,51.5,40.7,50.8,41.8,31.6,91,71,42,30.08,29.80,17,3,17,0.45
2013-4-24,46.4,39.3,34.4,38.3,30.7,25.0,91,73,45,30.07,29.83,23,4,23,0.13
2013-4-25,49.7,42.6,36.6,39.0,32.7,27.8,90,69,47,30.30,29.99,26,4,27,0.25
2013-4-26,66.7,51.0,34.0,41.0,35.4,27.9,83,58,36,30.38,30.22,18,2,18,0.00
2013-4-27,72.9,59.4,41.9,48.3,41.0,35.1,86,54,29,30.26,30.01,15,2,16,0.00
2013-4-28,67.0,58.9,49.6,54.2,46.3,37.3,85,64,49,30.01,29.77,14,1,15,0.00
2013-4-29,72.7,60.6,44.7,57.4,51.3,41.7,93,73,52,29.88,29.77,17,1,17,0.00
2013-4-30,80.1,67.5,57.3,62.5,57.5,52.5,89,71,53,29.92,29.79,21,5,24,0.53
2013-5-1,87.2,75.1,63.0,61.5,58.1,55.0,79,58,36,30.11,29.92,17,2,18,0.00
2013-5-2,85.0,71.3,58.7,61.8,57.0,52.2,79,62,39,30.12,30.01,14,1,15,0.00
2013-5-3,81.3,67.4,53.6,60.3,53.1,39.1,90,63,32,30.05,29.91,19,2,20,0.00
2013-5-4,75.0,68.2,60.1,51.1,44.3,38.0,57,43,31,30.02,29.93,19,3,23,0.00
2013-5-5,77.2,65.8,56.4,51.2,42.2,32.5,57,43,23,30.02,29.93,17,2,21,0.00
2013-5-6,76.9,63.7,49.0,46.9,40.7,34.1,71,46,22,30.00,29.91,12,1,15,0.00
2013-5-7,80.7,66.1,47.7,54.0,48.0,42.8,89,55,34,30.01,29.92,12,1,14,0.00
2013-5-8,82.2,68.0,51.9,57.7,52.0,47.6,91,60,35,29.98,29.89,13,0,16,0.00
2013-5-9,82.5,65.8,49.7,53.3,48.9,43.4,91,60,27,29.92,29.82,20,0,20,0.01
2013-5-10,60.4,50.6,46.0,54.0,47.3,43.5,92,89,73,29.88,29.72,19,2,19,0.31
2013-5-11,55.4,46.5,38.0,49.9,42.1,34.5,91,85,65,29.91,29.71,28,3,32,0.14
2013-5-12,45.5,41.1,36.5,36.3,30.8,26.6,88,67,49,30.10,29.89,25,6,26,0.01
2013-5-13,55.2,43.6,27.4,34.7,27.6,23.4,89,57,30,30.17,30.03,16,1,17,0.00
2013-5-14,75.3,61.5,45.5,56.9,44.1,28.0,76,53,45,30.04,29.57,20,2,22,0.00
2013-5-15,78.7,69.7,54.3,60.2,51.8,43.4,81,54,34,29.77,29.50,21,3,22,0.00
2013-5-16,82.0,65.1,45.3,56.9,47.3,39.9,92,58,29,29.96,29.76,16,1,17,0.00
2013-5-17,69.3,62.0,53.5,49.1,44.7,40.0,64,53,38,30.07,29.96,19,3,19,0.00
2013-5-18,84.7,69.3,56.5,62.0,52.0,46.4,77,56,36,30.08,29.92,14,1,14,0.00
2013-5-19,88.5,75.8,60.4,67.0,57.6,46.5,70,54,43,29.94,29.75,16,1,17,0.00
2013-5-20,88.0,78.2,69.3,73.3,65.4,59.4,84,66,41,29.79,29.66,21,2,25,0.22
2013-5-21,81.3,73.5,64.5,69.7,64.5,60.8,93,74,55,29.72,29.62,22,2,28,0.37
2013-5-22,71.0,66.0,58.5,67.4,62.9,56.2,93,90,79,29.65,29.56,18,1,24,0.57
2013-5-23,58.5,52.4,43.3,56.3,49.1,36.5,96,89,74,30.19,29.64,20,2,24,0.53
2013-5-24,62.4,49.1,36.5,46.2,39.0,32.9,89,69,50,30.35,30.19,14,1,14,0.00
2013-5-25,67.7,54.2,38.5,45.3,39.3,34.8,92,61,31,30.37,30.24,10,0,12,0.00
2013-5-26,72.2,59.4,44.3,46.2,40.7,34.7,86,54,28,30.31,30.16,10,1,13,0.00
2013-5-27,60.8,55.6,52.2,51.0,44.6,37.8,92,68,46,30.17,29.90,17,3,20,0.11
2013-5-28,77.3,63.6,53.3,69.8,60.6,51.0,96,91,72,29.91,29.70,16,2,20,0.89
2013-5-29,79.5,69.7,62.1,68.8,64.8,59.3,94,85,65,29.92,29.72,16,1,21,0.22
2013-5-30,86.8,78.2,67.7,72.8,67.7,62.2,87,71,57,29.92,29.80,19,2,20,0.00
2013-5-31,81.7,74.8,66.8,69.4,66.4,63.0,92,76,59,29.85,29.71,21,2,25,0.25
2013-6-1,80.3,72.5,65.0,67.4,64.4,61.0,91,77,55,29.73,29.59,22,3,25,0.26
2013-6-2,65.0,56.2,46.2,62.0,50.3,39.8,93,81,63,29.99,29.58,20,3,21,0.04
2013-6-3,66.3,54.4,38.4,49.4,42.2,35.2,92,66,43,30.07,29.98,16,1,18,0.00
2013-6-4,74.5,61.7,46.5,52.9,47.4,42.8,88,62,42,30.15,30.06,9,1,12,0.00
2013-6-5,72.5,66.8,59.8,48.4,43.1,37.6,64,43,34,30.11,30.03,15,2,17,0.00
2013-6-6,71.0,71.0,71.0,41.2,41.2,41.2,34,34,34,30.03,30.03,3,3,3,0.00
2013-6-7,71.0,71.0,71.0,41.2,41.2,41.2,34,34,34,30.03,30.03,3,3,3,0.00
2013-6-8,77.5,65.4,51.3,57.1,51.0,41.2,90,62,34,30.03,29.85,10,0,11,0.00
2013-6-9,81.8,70.5,56.5,64.2,58.6,49.9,85,67,50,30.00,29.83,21,2,21,0.01
2013-6-10,77.3,68.3,63.5,68.1,62.9,56.6,93,84,63,29.84,29.68,13,1,13,0.22
2013-6-11,82.0,68.5,57.5,69.3,62.0,55.5,96,81,61,29.87,29.76,14,1,16,0.00
2013-6-12,78.3,69.6,62.1,70.0,64.8,59.1,95,85,70,29.88,29.57,23,0,23,0.70
2013-6-13,77.8,68.6,60.1,64.5,60.5,56.0,94,77,52,29.93,29.56,21,2,23,0.52
2013-6-14,80.1,67.0,54.8,60.1,54.8,51.2,90,67,38,30.06,29.92,13,1,14,0.00
2013-6-15,76.0,65.5,53.3,65.2,58.9,49.7,93,80,63,30.01,29.85,15,1,18,0.01
2013-6-16,80.0,70.6,62.2,68.8,62.9,55.9,94,78,54,29.93,29.83,19,2,19,1.08
2013-6-17,85.0,71.8,57.7,65.4,59.0,55.1,94,67,39,29.97,29.85,20,1,25,0.00
2013-6-18,74.0,65.7,57.1,60.2,52.3,43.5,88,65,38,30.10,29.92,14,2,17,0.00
2013-6-19,78.5,64.7,47.4,52.2,46.0,41.3,86,53,30,30.20,30.10,10,0,11,0.00
2013-6-20,85.7,69.6,50.3,59.6,53.9,46.8,92,62,36,30.21,30.12,8,0,10,0.00
2013-6-21,85.5,76.3,64.1,68.3,63.3,55.8,79,65,52,30.17,29.97,19,1,20,0.00
2013-6-22,89.3,77.1,69.0,72.6,68.0,64.9,88,75,52,30.10,29.96,11,0,14,0.00
2013-6-23,89.9,79.9,69.2,71.2,68.5,65.2,89,70,51,30.03,29.93,17,2,19,0.00
2013-6-24,86.7,78.0,71.6,71.4,67.8,63.5,85,72,53,30.04,29.85,19,1,22,0.00
2013-6-25,80.2,72.0,67.8,72.5,67.4,63.5,93,86,74,29.99,29.82,20,0,26,0.49
2013-6-26,87.0,77.0,66.3,72.6,68.9,63.9,94,77,55,29.86,29.73,9,0,13,0.00
2013-6-27,85.8,76.1,67.3,73.0,69.0,64.5,93,80,54,29.75,29.64,16,1,19,0.00
2013-6-28,80.2,71.1,65.7,68.9,64.7,61.5,93,81,61,29.66,29.55,16,1,17,0.18
2013-6-29,74.0,67.4,60.4,66.2,62.0,58.1,94,83,71,29.77,29.58,10,0,12,0.03
2013-6-30,81.8,72.3,62.8,65.8,58.9,49.6,89,65,40,30.00,29.77,16,1,19,0.00
2013-7-1,79.0,68.3,57.5,56.6,51.0,45.7,73,55,37,30.11,30.00,26,2,27,0.00
2013-7-2,66.6,63.3,58.7,61.9,54.3,41.9,90,74,44,30.11,30.05,10,1,14,0.19
2013-7-3,84.4,68.5,61.2,68.8,61.2,51.3,92,79,52,30.10,30.02,12,1,12,0.23
2013-7-4,80.7,70.9,62.1,66.6,62.4,58.4,94,77,49,30.13,30.07,10,1,13,0.00
2013-7-5,88.3,75.0,62.8,68.3,64.0,60.2,94,71,44,30.12,30.03,8,1,10,0.00
2013-7-6,88.8,76.5,66.0,71.9,67.1,62.3,93,74,50,30.09,29.97,9,0,10,0.00
2013-7-7,86.7,77.2,70.3,73.0,69.1,66.4,92,77,56,30.02,29.95,11,1,13,0.00
2013-7-8,78.6,75.9,70.8,74.3,70.7,66.6,90,84,77,30.01,29.94,15,1,17,0.02
2013-7-9,87.1,76.0,67.8,75.2,70.5,64.5,94,84,62,30.00,29.84,14,1,16,0.02
2013-7-10,81.8,76.4,62.2,75.5,66.8,55.2,93,74,49,29.98,29.80,23,3,23,0.00
2013-7-11,83.4,70.0,55.3,61.9,56.5,52.4,94,66,38,30.08,29.98,17,1,17,0.00
2013-7-12,85.8,72.6,59.3,62.7,57.1,50.9,85,61,32,30.18,30.07,10,0,12,0.00
2013-7-13,88.6,76.0,60.6,64.1,59.4,55.7,90,60,34,30.20,30.13,14,1,15,0.00
2013-7-14,93.8,79.9,64.0,71.1,66.0,59.1,90,65,42,30.24,30.19,10,0,11,0.00
2013-7-15,97.5,82.4,69.7,76.4,72.0,66.7,94,73,47,30.28,30.21,14,0,16,0.02
2013-7-16,93.0,83.1,72.7,77.6,73.4,69.8,94,74,55,30.30,30.23,14,2,15,0.00
2013-7-17,94.1,83.7,74.6,77.8,73.7,69.7,93,73,51,30.28,30.15,15,1,18,0.00
2013-7-18,95.3,85.1,73.8,76.8,73.1,70.8,93,69,49,30.16,29.92,17,2,19,0.00
2013-7-19,93.6,85.3,79.5,76.6,73.3,67.7,85,68,51,29.93,29.70,30,4,32,0.19
2013-7-20,87.0,78.9,66.7,72.5,62.6,55.8,86,59,38,29.95,29.73,18,1,20,0.00
2013-7-21,87.0,71.1,60.4,69.1,59.0,50.2,90,67,42,30.02,29.90,14,1,17,0.32
2013-7-22,88.5,75.7,66.1,71.4,67.1,63.7,93,76,51,29.96,29.73,11,1,12,0.06
2013-7-23,79.5,72.4,58.0,71.0,62.7,48.6,90,73,51,29.95,29.65,21,4,23,0.01
2013-7-24,77.3,63.6,48.2,54.2,49.8,44.6,91,64,38,30.07,29.96,11,0,12,0.00
2013-7-25,81.4,66.6,52.2,60.0,54.1,49.7,93,67,40,30.12,30.05,12,1,12,0.00
2013-7-26,76.9,67.6,59.5,63.1,59.0,51.5,92,74,58,30.07,29.88,15,1,17,0.19
2013-7-27,70.3,62.9,55.8,63.1,57.3,49.1,94,82,66,29.89,29.82,20,2,21,0.01
2013-7-28,66.8,58.8,52.6,59.4,53.3,47.6,94,83,60,29.98,29.81,18,2,21,0.42
2013-7-29,70.1,62.3,56.7,58.4,55.7,51.7,92,80,61,30.22,29.95,13,1,15,0.04
2013-7-30,81.9,66.6,48.5,61.5,55.7,45.7,94,71,45,30.25,30.12,7,0,8,0.00
2013-7-31,71.1,67.3,64.4,66.9,63.0,59.6,92,86,70,30.13,29.92,7,0,8,0.14
2013-8-1,78.8,68.9,60.4,66.4,59.4,53.0,94,74,44,29.95,29.92,20,2,22,0.01
2013-8-2,75.7,66.8,59.2,67.5,61.7,55.2,93,84,73,29.95,29.85,17,1,17,0.03
2013-8-3,78.8,68.2,58.3,65.4,56.7,52.1,94,70,42,30.10,29.92,20,2,20,0.00
2013-8-4,76.5,64.5,53.8,57.5,52.8,47.3,93,68,44,30.22,30.09,13,1,15,0.00
2013-8-5,74.1,61.8,48.0,61.3,53.7,45.2,94,76,53,30.14,29.95,8,0,9,0.00
2013-8-6,78.2,70.4,65.1,69.8,65.4,61.1,91,84,74,29.95,29.86,9,0,11,0.02
2013-8-7,81.9,73.6,64.6,73.2,67.3,60.5,93,81,67,29.95,29.80,18,1,21,0.26
2013-8-8,81.0,69.1,59.1,61.0,55.7,50.4,91,66,35,30.05,29.94,11,0,11,0.00
2013-8-9,81.2,69.6,54.1,62.9,58.0,50.6,93,69,46,30.03,29.97,15,2,20,0.00
2013-8-10,82.1,70.4,59.8,61.2,56.9,52.1,90,65,36,30.15,30.03,11,0,11,0.00
2013-8-11,79.3,68.6,59.1,60.2,57.2,54.0,88,69,46,30.14,30.06,11,1,12,0.00
2013-8-12,76.3,68.9,64.5,69.5,64.0,58.1,94,85,72,30.06,29.86,8,0,10,0.32
2013-8-13,69.2,61.7,52.8,59.9,50.5,45.5,88,68,44,30.14,29.91,20,2,21,0.00
2013-8-14,74.2,58.5,44.2,54.8,47.9,41.2,92,70,43,30.23,30.13,13,1,15,0.00
2013-8-15,77.6,61.1,46.1,61.8,51.4,43.3,95,73,45,30.19,30.10,13,1,17,0.00
2013-8-16,84.2,66.8,50.8,63.7,54.6,48.0,96,69,35,30.22,30.14,9,0,9,0.00
2013-8-17,86.9,69.5,52.0,65.0,54.3,47.7,94,64,28,30.27,30.18,11,0,12,0.00
2013-8-18,87.1,69.7,53.1,63.9,56.2,50.2,94,66,36,30.24,30.12,11,0,11,0.00
2013-8-19,85.9,69.3,51.8,64.4,57.5,49.0,94,69,42,30.14,30.05,15,1,16,0.00
2013-8-20,87.7,73.1,59.9,69.6,62.9,56.5,94,73,48,30.13,30.06,15,1,16,0.00
2013-8-21,91.0,78.3,65.7,70.0,66.3,61.7,91,69,45,30.10,29.95,17,2,20,0.00
2013-8-22,79.1,70.9,64.4,70.8,66.8,62.0,94,87,70,30.09,29.96,29,1,35,0.08
2013-8-23,85.3,70.3,52.8,63.9,54.6,49.3,93,63,29,30.21,30.09,11,0,11,0.00
2013-8-24,88.2,71.4,54.5,61.7,56.5,51.6,93,64,34,30.31,30.19,11,1,12,0.00
2013-8-25,90.0,76.5,63.2,67.7,62.8,57.7,84,64,46,30.27,30.12,19,2,20,0.00
2013-8-26,85.2,76.8,69.1,72.4,68.1,63.9,87,75,63,30.15,29.97,13,2,17,0.00
2013-8-27,92.7,81.8,73.1,77.2,73.3,70.5,94,77,55,29.99,29.78,22,2,23,0.43
2013-8-28,85.7,77.9,72.7,74.5,72.2,69.0,94,84,61,30.02,29.79,10,0,11,0.11
2013-8-29,91.8,78.2,65.8,72.3,67.2,62.1,95,72,39,30.09,29.99,9,0,11,0.00
2013-8-30,90.8,77.7,67.6,73.3,69.5,64.6,94,78,54,29.99,29.73,17,2,20,0.00
2013-8-31,81.2,72.0,63.5,69.0,64.4,60.8,94,78,60,29.86,29.80,8,0,10,0.00
2013-9-1,87.0,73.4,64.1,72.5,67.4,61.1,94,82,57,29.85,29.71,12,0,13,0.00
2013-9-2,72.2,66.1,60.4,69.0,58.9,52.1,92,78,64,29.98,29.75,18,3,20,0.00
2013-9-3,76.3,64.5,52.7,58.2,53.7,48.4,89,70,50,30.07,29.98,13,1,15,0.00
2013-9-4,82.0,66.9,54.3,66.2,58.4,50.7,95,76,48,30.13,30.03,18,2,20,0.00
2013-9-5,76.4,64.0,52.9,60.4,49.3,42.5,88,63,31,30.29,30.12,12,1,13,0.00
2013-9-6,83.9,66.2,48.6,56.4,51.5,44.9,89,63,33,30.28,30.04,11,1,13,0.00
2013-9-7,83.3,71.9,64.8,70.1,63.8,55.8,87,76,61,30.04,29.91,14,2,15,0.00
2013-9-8,79.5,70.6,64.6,65.4,61.2,55.6,93,74,47,30.09,29.96,16,2,18,0.00
2013-9-9,88.0,72.8,61.0,73.8,65.6,55.3,95,79,60,30.05,29.83,14,2,14,0.80
2013-9-10,93.5,84.0,76.3,73.5,69.0,64.9,84,63,41,29.97,29.83,21,3,25,0.00
2013-9-11,85.6,77.0,65.9,71.3,67.0,61.4,87,72,49,30.05,29.94,18,1,18,0.01
2013-9-12,77.8,67.5,56.3,65.7,58.0,48.8,93,74,46,30.06,29.91,21,2,26,0.01
2013-9-13,65.8,56.6,49.5,48.8,44.0,37.1,86,65,36,30.17,30.06,16,1,18,0.00
2013-9-14,70.6,54.8,38.9,54.0,45.6,35.5,92,73,46,30.22,30.08,14,1,15,0.00
2013-9-15,60.4,56.8,50.4,57.8,52.0,44.8,92,84,70,30.18,30.06,5,0,6,0.13
2013-9-16,62.7,55.2,46.9,54.6,48.1,41.0,93,78,54,30.40,30.18,9,1,11,0.00
2013-9-17,71.2,55.9,39.6,50.3,45.0,36.2,91,69,43,30.43,30.21,9,1,12,0.00
2013-9-18,81.1,66.4,54.4,60.8,54.5,48.4,84,67,47,30.21,29.98,15,1,15,0.00
2013-9-19,75.5,70.3,65.7,71.4,64.5,57.0,94,82,66,30.01,29.83,15,2,16,0.45
2013-9-20,73.1,70.7,63.5,69.6,66.2,58.6,92,86,82,29.86,29.73,16,2,18,0.00
2013-9-21,65.3,59.9,53.8,58.6,52.0,47.4,90,76,54,29.94,29.72,19,2,23,0.00
2013-9-22,55.6,51.8,43.4,48.2,44.3,39.0,91,76,64,30.12,29.93,9,1,10,0.00
2013-9-23,66.6,51.7,37.7,48.3,42.3,34.5,92,72,48,30.21,30.12,11,1,12,0.00
2013-9-24,70.3,56.2,43.2,51.8,47.0,40.2,91,73,49,30.17,30.01,11,1,13,0.00
2013-9-25,72.9,58.6,46.4,54.0,48.8,43.8,93,73,43,30.04,29.98,10,0,13,0.00
2013-9-26,76.8,60.2,44.8,54.8,48.6,41.8,93,70,33,30.14,30.02,10,1,11,0.00
2013-9-27,81.1,64.1,46.1,56.7,51.4,43.3,93,67,36,30.24,30.14,13,2,14,0.00
2013-9-28,82.2,68.1,54.8,60.7,55.0,51.9,92,66,41,30.17,29.94,17,4,20,0.00
2013-9-29,72.2,63.3,50.3,62.5,54.0,46.3,92,73,52,30.03,29.91,10,0,13,0.34
2013-9-30,73.7,59.5,48.6,57.9,51.4,45.2,91,76,48,30.03,29.92,11,1,11,0.00
2013-10-1,73.3,63.6,55.1,65.4,58.9,51.9,94,85,75,29.97,29.91,17,2,21,0.00
2013-10-2,78.1,74.0,63.8,64.5,53.4,40.1,82,53,26,30.12,29.93,7,0,9,0.00
2013-10-3,80.8,75.6,70.5,69.6,57.6,39.9,81,58,33,30.04,29.88,13,2,17,0.00
2013-10-4,79.7,74.1,67.2,69.4,67.2,60.7,93,79,68,30.00,29.90,11,1,14,0.00
2013-10-5,76.4,73.4,71.6,71.1,67.6,65.8,85,82,78,30.02,29.78,13,0,17,0.00
2013-10-6,76.2,26.3,0.0,70.3,23.3,0.0,92,33,72,29.80,29.68,7,0,10,0.00
2013-10-7,61.1,57.3,44.8,52.3,48.4,41.2,91,72,60,30.12,29.70,22,2,22,0.00
2013-10-8,72.7,56.9,42.4,54.3,47.4,40.1,93,73,48,30.26,30.12,13,1,15,0.00
2013-10-9,71.8,58.6,44.0,53.2,47.4,40.4,92,68,43,30.32,30.19,10,0,11,0.00
2013-10-10,73.4,57.0,40.9,54.0,46.2,37.9,93,70,42,30.23,30.12,8,0,11,0.00
2013-10-11,71.4,57.1,41.4,52.5,46.0,37.9,92,69,38,30.17,30.05,10,1,13,0.00
2013-10-12,78.5,64.4,51.4,61.8,54.1,45.4,92,71,46,30.12,30.00,15,1,16,0.26
2013-10-13,62.5,53.1,41.9,58.1,46.0,39.2,93,78,55,30.41,30.11,17,1,17,0.01
2013-10-14,62.1,49.8,38.7,46.3,39.8,36.0,93,71,41,30.46,30.27,11,1,13,0.00
2013-10-15,65.7,55.7,46.1,60.7,50.9,41.8,94,84,74,30.27,29.80,14,2,16,0.39
2013-10-16,62.3,53.5,50.1,60.6,49.5,45.9,94,87,80,29.91,29.79,12,2,12,0.23
2013-10-17,52.6,49.3,39.1,50.9,47.2,36.0,94,92,88,29.91,29.76,3,0,3,0.56
2013-10-18,60.5,47.4,37.9,52.5,42.5,35.7,94,84,66,29.93,29.86,16,2,22,0.00
2013-10-19,52.9,46.5,41.9,44.6,40.4,34.1,91,80,49,29.91,29.77,18,4,18,0.19
2013-10-20,56.9,48.0,36.2,49.0,41.4,34.1,94,79,54,29.92,29.75,11,2,12,0.10
2013-10-21,53.7,48.1,40.8,51.0,41.3,27.1,92,78,58,29.92,29.78,19,2,20,0.11
2013-10-22,49.1,42.2,34.8,36.4,31.9,26.8,83,67,57,29.94,29.90,18,2,18,0.00
2013-10-23,45.1,38.0,32.5,39.1,32.0,27.3,92,80,52,30.00,29.89,15,1,16,0.02
2013-10-24,44.2,38.0,34.6,37.7,33.1,30.3,92,83,64,30.25,29.97,15,2,19,0.03
2013-10-25,46.3,39.6,31.6,40.4,32.4,28.5,92,77,53,30.38,30.03,15,3,21,0.01
2013-10-26,53.2,47.9,40.4,42.2,36.5,31.7,81,65,53,30.05,29.78,25,2,27,0.11
2013-10-27,51.1,43.0,35.8,38.7,33.8,29.5,88,71,53,30.07,29.99,22,1,22,0.00
2013-10-28,47.9,40.5,33.2,40.1,33.9,29.5,91,78,65,30.45,30.06,12,2,15,0.00
2013-10-29,50.0,42.8,39.3,38.3,33.5,28.9,80,69,63,30.47,30.25,10,1,11,0.00
2013-10-30,63.8,50.4,35.8,55.4,43.8,32.3,92,79,59,30.25,29.88,8,0,10,0.42
2013-10-31,63.3,60.5,55.7,61.8,58.7,54.0,96,94,92,29.87,29.10,0,0,0,0.89
2013-11-1,55.7,47.7,45.3,54.3,44.9,41.6,96,90,82,29.69,29.17,5,0,8,0.42
2013-11-2,49.0,45.6,41.9,45.2,40.9,36.0,94,84,61,30.13,29.68,12,3,14,0.03
2013-11-3,49.1,42.0,33.5,38.0,34.4,29.1,91,75,57,30.42,30.13,13,4,14,0.01
2013-11-4,53.2,45.4,38.7,40.9,34.6,32.3,88,67,48,30.42,30.23,20,3,23,0.00
2013-11-5,60.7,53.9,49.9,49.0,46.0,40.9,84,75,64,30.33,30.07,9,3,11,0.00
2013-11-6,56.4,50.4,40.9,54.5,47.4,37.7,94,89,70,30.07,29.74,5,5,5,1.21
2013-11-7,43.6,38.8,34.4,37.7,30.6,27.5,88,72,60,30.20,30.05,21,4,21,0.01
2013-11-8,45.9,39.3,32.4,33.2,29.0,24.4,88,67,51,30.33,30.11,13,2,13,0.00
2013-11-9,51.6,47.9,41.6,43.1,37.9,32.2,75,68,61,30.11,29.82,28,5,28,0.00
2013-11-10,47.1,41.7,32.0,34.1,31.2,26.1,87,67,56,30.30,29.96,22,7,24,0.00
2013-11-11,46.4,38.7,29.9,38.4,33.2,22.2,90,81,68,30.34,30.07,14,8,17,0.27
2013-11-14,46.6,41.2,32.3,34.2,29.4,24.8,75,63,50,30.15,29.98,25,5,25,0.00
2013-11-15,49.1,43.2,39.2,37.7,32.7,30.2,77,66,53,30.04,29.97,14,2,16,0.00
2013-11-16,56.2,48.7,38.6,53.9,43.3,31.6,92,82,74,30.05,29.64,22,5,25,0.36
2013-11-17,64.7,56.3,43.2,61.0,53.7,37.5,93,91,73,29.67,29.17,34,6,41,1.93
2013-11-18,45.9,38.8,35.1,38.8,29.8,24.7,76,70,64,30.21,29.55,28,8,30,0.00
2013-11-19,40.7,35.3,27.5,26.1,24.3,20.7,82,64,51,30.42,30.21,13,2,15,0.00
2013-11-20,44.9,37.4,30.8,32.3,25.8,23.3,76,64,43,30.42,30.22,18,4,21,0.00
2013-11-21,51.4,45.3,39.5,43.6,39.7,32.6,90,81,71,30.27,30.18,8,1,11,0.14
2013-11-22,46.5,37.2,24.7,44.0,32.4,19.8,92,83,68,30.45,30.18,14,3,19,0.01
2013-11-23,30.9,24.0,17.5,23.5,15.5,7.7,88,70,51,30.64,30.35,25,6,27,0.00
2013-11-24,24.6,21.0,17.2,18.5,12.7,8.4,82,70,57,30.69,30.41,11,3,13,0.00
2013-11-25,34.4,27.5,21.5,30.8,21.1,11.0,91,77,60,30.41,30.09,16,4,22,0.01
2013-11-26,34.5,31.5,24.9,30.2,26.1,17.2,85,80,68,30.10,30.00,19,4,21,0.00
2013-11-27,30.0,23.8,19.8,19.7,15.2,10.4,82,70,53,30.27,30.08,23,4,23,0.00
2013-11-28,28.2,24.5,19.8,22.0,19.4,14.0,88,81,66,30.49,30.26,10,1,12,0.00
2013-11-29,32.3,25.1,13.3,27.2,20.1,9.4,90,81,72,30.71,30.49,10,1,11,0.01
2013-11-30,44.1,36.1,27.3,32.4,27.2,20.8,79,70,59,30.54,30.08,17,3,18,0.05
2013-12-1,42.9,37.9,33.9,34.0,30.7,27.0,88,76,61,30.13,30.04,11,1,11,0.00
2013-12-2,41.2,35.8,31.8,31.9,27.7,23.5,87,73,57,30.04,29.90,11,2,13,0.00
2013-12-3,35.8,34.1,31.5,34.0,30.1,23.7,93,86,66,29.92,29.82,15,5,15,0.71
2013-12-4,56.4,43.9,35.8,55.0,42.3,34.0,95,94,93,29.87,29.56,13,4,19,0.04
2013-12-5,55.3,35.7,27.4,51.2,28.3,18.9,88,74,65,30.22,29.60,26,8,28,0.00
2013-12-6,27.4,23.2,20.6,19.2,15.7,13.7,82,73,69,30.48,30.21,12,4,15,0.00
2013-12-7,21.1,18.0,11.7,16.5,12.1,6.8,85,77,68,30.69,30.48,13,3,13,0.00
2013-12-8,21.7,18.2,12.7,19.0,13.2,8.4,89,81,66,30.65,30.03,14,4,17,0.00
2013-12-9,28.6,23.8,16.7,26.3,18.7,8.6,91,81,64,30.17,29.91,20,6,30,0.00
2013-12-10,21.4,17.6,13.0,18.1,12.7,7.2,91,81,71,30.25,29.97,18,5,18,0.00
2013-12-11,21.1,16.8,11.6,17.8,12.5,7.4,88,83,73,30.52,30.25,14,4,16,0.00
2013-12-12,24.5,17.1,11.2,23.4,13.6,7.2,96,86,80,30.51,30.22,14,4,16,0.00
2013-12-13,30.7,25.7,21.1,23.5,20.2,15.3,89,79,67,30.30,30.19,18,3,18,0.08
2013-12-14,21.5,19.6,16.8,18.1,16.0,12.3,89,86,78,30.29,29.89,19,6,21,0.00
2013-12-15,22.9,19.0,15.3,20.3,15.3,9.9,96,85,76,30.05,29.82,16,4,18,0.00
2013-12-16,23.0,15.3,5.0,17.3,10.1,1.2,88,80,67,30.16,30.01,9,2,10,0.00
2013-12-17,30.6,25.8,18.0,28.3,22.8,14.3,91,88,82,30.01,29.84,15,3,17,0.00
2013-12-18,30.6,27.5,24.7,25.5,20.6,14.8,90,75,61,30.12,29.81,14,4,17,0.00
2013-12-19,40.6,34.7,27.2,36.0,30.0,22.3,92,83,72,29.95,29.79,12,2,14,0.27
2013-12-20,33.4,32.3,30.1,31.3,30.1,27.8,92,91,90,29.85,29.73,13,3,13,0.00
2013-12-21,32.8,31.5,29.4,30.9,29.6,27.1,93,93,91,29.88,29.70,0,0,0,0.12
2013-12-22,32.2,30.0,25.7,29.9,27.5,23.2,91,90,88,30.03,29.58,0,0,0,0.01
2013-12-23,28.7,23.2,17.3,25.2,20.3,14.4,90,88,84,30.33,30.03,0,0,0,0.00
2013-12-24,22.9,17.3,11.2,19.5,13.8,7.6,89,86,80,30.52,30.33,0,0,0,0.00
2013-12-25,24.9,20.2,11.8,22.4,17.0,8.4,90,87,84,30.47,30.07,0,0,0,0.00
2013-12-26,26.4,24.4,21.4,24.1,21.1,16.9,91,87,81,30.25,30.04,0,0,0,0.00
2013-12-27,39.2,32.0,26.2,33.0,28.4,23.7,92,87,76,30.30,30.03,22,2,22,0.05
2013-12-28,44.2,39.2,29.6,35.5,32.6,25.9,91,78,66,30.07,29.83,17,4,21,0.54
2013-12-29,42.3,31.2,18.2,33.0,24.5,9.8,87,76,66,30.09,29.73,21,5,21,0.05
2013-12-30,19.3,16.5,14.2,12.6,9.2,4.6,82,73,63,30.30,30.09,11,2,12,0.00
2013-12-31,17.4,15.0,12.2,13.6,11.1,8.3,86,84,82,30.37,30.12,15,4,16,0.00
2014-1-1,13.0,11.6,10.6,9.1,5.5,2.1,84,76,64,30.43,30.30,13,4,16,0.00
2014-1-2,14.3,10.5,-3.1,8.2,3.3,-8.8,81,73,60,30.40,30.23,16,4,18,0.00